createdAt,value
2018-12-07T00:00:04.789Z,1007.06
2018-12-07T00:01:04.785Z,1007.14
2018-12-07T00:02:04.787Z,1007.07
2018-12-07T00:03:04.801Z,1007.09
2018-12-07T00:04:04.802Z,1007.12
2018-12-07T00:05:04.805Z,1007.01
2018-12-07T00:06:04.806Z,1007.13
2018-12-07T00:07:04.814Z,1007.05
2018-12-07T00:08:04.818Z,1007.00
2018-12-07T00:09:04.824Z,1007.08
2018-12-07T00:10:04.843Z,1007.01
2018-12-07T00:11:04.839Z,1007.07
2018-12-07T00:12:04.841Z,1007.01
2018-12-07T00:13:04.850Z,1006.96
2018-12-07T00:14:04.851Z,1007.03
2018-12-07T00:15:04.856Z,1007.04
2018-12-07T00:16:04.871Z,1006.94
2018-12-07T00:17:04.869Z,1006.94
2018-12-07T00:18:04.876Z,1006.95
2018-12-07T00:19:04.884Z,1006.96
2018-12-07T00:20:04.890Z,1006.94
2018-12-07T00:21:04.897Z,1006.87
2018-12-07T00:22:04.901Z,1006.92
2018-12-07T00:23:04.905Z,1006.98
2018-12-07T00:24:04.914Z,1006.88
2018-12-07T00:25:04.913Z,1006.87
2018-12-07T00:26:04.922Z,1006.94
2018-12-07T00:27:04.943Z,1006.85
2018-12-07T00:28:04.933Z,1006.81
2018-12-07T00:29:04.949Z,1006.93
2018-12-07T00:30:04.946Z,1006.88
2018-12-07T00:31:04.959Z,1006.83
2018-12-07T00:32:04.958Z,1006.78
2018-12-07T00:33:04.974Z,1006.91
2018-12-07T00:34:04.967Z,1006.86
2018-12-07T00:35:04.979Z,1006.82
2018-12-07T00:36:04.988Z,1006.74
2018-12-07T00:37:05.006Z,1006.84
2018-12-07T00:38:05.020Z,1006.83
2018-12-07T00:40:05.006Z,1006.71
2018-12-07T00:42:05.028Z,1006.67
2018-12-07T00:43:05.019Z,1006.74
2018-12-07T00:44:05.031Z,1006.65
2018-12-07T00:45:05.037Z,1006.59
2018-12-07T00:46:05.039Z,1006.68
2018-12-07T00:47:05.049Z,1006.65
2018-12-07T00:48:05.051Z,1006.60
2018-12-07T00:49:05.061Z,1006.67
2018-12-07T00:50:05.067Z,1006.62
2018-12-07T00:51:05.075Z,1006.65
2018-12-07T00:52:05.082Z,1006.70
2018-12-07T00:53:05.094Z,1006.60
2018-12-07T00:54:05.092Z,1006.62
2018-12-07T00:55:05.101Z,1006.70
2018-12-07T00:56:05.106Z,1006.61
2018-12-07T00:57:05.115Z,1006.62
2018-12-07T00:58:05.112Z,1006.62
2018-12-07T00:59:05.307Z,1006.59
2018-12-07T01:00:05.126Z,1006.56
2018-12-07T01:01:05.147Z,1006.53
2018-12-07T01:02:05.145Z,1006.52
2018-12-07T01:03:05.143Z,1006.50
2018-12-07T01:04:05.154Z,1006.54
2018-12-07T01:05:05.160Z,1006.42
2018-12-07T01:06:05.164Z,1006.48
2018-12-07T01:07:05.170Z,1006.53
2018-12-07T01:08:05.179Z,1006.39
2018-12-07T01:09:05.173Z,1006.49
2018-12-07T01:10:05.183Z,1006.35
2018-12-07T01:12:05.198Z,1006.40
2018-12-07T01:13:05.202Z,1006.42
2018-12-07T01:14:05.213Z,1006.45
2018-12-07T01:15:05.210Z,1006.32
2018-12-07T01:16:05.219Z,1006.39
2018-12-07T01:17:05.233Z,1006.33
2018-12-07T01:18:05.242Z,1006.31
2018-12-07T01:19:05.242Z,1006.32
2018-12-07T01:20:05.262Z,1006.20
2018-12-07T01:21:05.253Z,1006.25
2018-12-07T01:22:05.314Z,1006.22
2018-12-07T01:23:05.264Z,1006.21
2018-12-07T01:24:05.273Z,1006.21
2018-12-07T01:25:05.274Z,1006.23
2018-12-07T01:26:05.284Z,1006.16
2018-12-07T01:27:05.291Z,1006.22
2018-12-07T01:28:05.292Z,1006.13
2018-12-07T01:29:05.302Z,1006.10
2018-12-07T01:30:05.305Z,1006.11
2018-12-07T01:31:05.313Z,1006.12
2018-12-07T01:32:05.313Z,1006.23
2018-12-07T01:33:05.327Z,1006.05
2018-12-07T01:34:05.336Z,1006.14
2018-12-07T01:35:05.334Z,1006.10
2018-12-07T01:36:05.342Z,1006.09
2018-12-07T01:37:05.353Z,1006.13
2018-12-07T01:38:05.354Z,1006.03
2018-12-07T01:39:05.373Z,1006.08
2018-12-07T01:40:05.366Z,1006.03
2018-12-07T01:41:05.392Z,1006.09
2018-12-07T01:42:05.387Z,1006.04
2018-12-07T01:43:05.396Z,1006.12
2018-12-07T01:44:05.390Z,1006.03
2018-12-07T01:45:05.397Z,1006.06
2018-12-07T01:46:05.395Z,1006.02
2018-12-07T01:47:05.401Z,1006.07
2018-12-07T01:48:05.432Z,1005.98
2018-12-07T01:49:05.423Z,1006.00
2018-12-07T01:50:05.433Z,1006.02
2018-12-07T01:51:05.427Z,1006.13
2018-12-07T01:52:05.436Z,1005.98
2018-12-07T01:53:05.439Z,1006.00
2018-12-07T01:54:05.446Z,1005.96
2018-12-07T01:55:05.453Z,1006.06
2018-12-07T01:56:05.507Z,1006.03
2018-12-07T01:57:05.467Z,1006.01
2018-12-07T01:58:05.473Z,1006.00
2018-12-07T01:59:05.493Z,1005.99
2018-12-07T02:00:05.483Z,1005.98
2018-12-07T02:01:05.491Z,1005.96
2018-12-07T02:02:05.496Z,1006.07
2018-12-07T02:03:05.500Z,1005.91
2018-12-07T02:04:05.507Z,1005.74
2018-12-07T02:05:05.515Z,1005.95
2018-12-07T02:06:05.523Z,1005.88
2018-12-07T02:07:05.525Z,1005.92
2018-12-07T02:08:05.529Z,1005.85
2018-12-07T02:09:05.540Z,1005.87
2018-12-07T02:10:05.555Z,1005.88
2018-12-07T02:11:05.561Z,1005.87
2018-12-07T02:12:05.560Z,1005.94
2018-12-07T02:13:05.566Z,1005.98
2018-12-07T02:14:05.580Z,1005.73
2018-12-07T02:15:05.590Z,1005.77
2018-12-07T02:16:05.592Z,1005.91
2018-12-07T02:17:05.596Z,1005.85
2018-12-07T02:18:05.585Z,1005.78
2018-12-07T02:19:05.596Z,1005.67
2018-12-07T02:20:05.602Z,1005.69
2018-12-07T02:21:05.626Z,1005.64
2018-12-07T02:22:05.611Z,1005.69
2018-12-07T02:23:05.615Z,1005.63
2018-12-07T02:24:05.631Z,1005.61
2018-12-07T02:25:05.631Z,1005.66
2018-12-07T02:26:05.638Z,1005.56
2018-12-07T02:28:05.649Z,1005.56
2018-12-07T02:29:05.659Z,1005.55
2018-12-07T02:30:05.661Z,1005.54
2018-12-07T02:31:05.675Z,1005.59
2018-12-07T02:32:05.748Z,1005.52
2018-12-07T02:33:05.725Z,1005.51
2018-12-07T02:34:05.806Z,1005.55
2018-12-07T02:35:05.908Z,1005.54
2018-12-07T02:36:05.952Z,1005.50
2018-12-07T02:37:05.974Z,1005.48
2018-12-07T02:38:05.749Z,1005.52
2018-12-07T02:39:05.821Z,1005.49
2018-12-07T02:40:05.879Z,1005.48
2018-12-07T02:42:05.803Z,1005.44
2018-12-07T02:43:05.741Z,1005.51
2018-12-07T02:44:05.750Z,1005.42
2018-12-07T02:45:05.754Z,1005.53
2018-12-07T02:46:05.752Z,1005.44
2018-12-07T02:47:05.758Z,1005.44
2018-12-07T02:48:05.770Z,1005.37
2018-12-07T02:49:05.776Z,1005.35
2018-12-07T02:50:05.791Z,1005.36
2018-12-07T02:51:05.791Z,1005.38
2018-12-07T02:52:05.793Z,1005.37
2018-12-07T02:53:05.799Z,1005.33
2018-12-07T02:54:05.798Z,1005.37
2018-12-07T02:55:05.799Z,1005.30
2018-12-07T02:56:05.809Z,1005.30
2018-12-07T02:57:05.824Z,1005.29
2018-12-07T02:58:05.822Z,1005.29
2018-12-07T02:59:05.825Z,1005.30
2018-12-07T03:00:05.837Z,1005.24
2018-12-07T03:01:05.901Z,1005.23
2018-12-07T03:02:05.895Z,1005.26
2018-12-07T03:03:05.852Z,1005.23
2018-12-07T03:04:05.863Z,1005.18
2018-12-07T03:05:05.919Z,1005.25
2018-12-07T03:06:05.870Z,1005.19
2018-12-07T03:07:05.879Z,1005.27
2018-12-07T03:08:05.882Z,1005.18
2018-12-07T03:09:05.891Z,1005.12
2018-12-07T03:10:05.911Z,1005.17
2018-12-07T03:11:05.909Z,1005.15
2018-12-07T03:12:05.910Z,1005.11
2018-12-07T03:13:05.918Z,1005.12
2018-12-07T03:14:05.933Z,1005.10
2018-12-07T03:15:05.927Z,1005.09
2018-12-07T03:16:05.957Z,1005.06
2018-12-07T03:17:05.941Z,1005.03
2018-12-07T03:18:05.957Z,1005.08
2018-12-07T03:19:05.953Z,1005.05
2018-12-07T03:20:05.960Z,1005.02
2018-12-07T03:21:05.983Z,1005.09
2018-12-07T03:22:05.973Z,1005.05
2018-12-07T03:23:05.976Z,1005.05
2018-12-07T03:24:05.979Z,1005.04
2018-12-07T03:25:05.990Z,1005.08
2018-12-07T03:26:05.999Z,1005.04
2018-12-07T03:27:06.003Z,1004.92
2018-12-07T03:28:06.004Z,1004.99
2018-12-07T03:29:06.016Z,1005.03
2018-12-07T03:30:06.049Z,1005.00
2018-12-07T03:31:06.022Z,1004.97
2018-12-07T03:32:06.032Z,1004.95
2018-12-07T03:33:06.037Z,1004.91
2018-12-07T03:34:06.039Z,1004.92
2018-12-07T03:35:06.046Z,1004.83
2018-12-07T03:36:06.053Z,1004.86
2018-12-07T03:37:06.056Z,1004.83
2018-12-07T03:38:06.064Z,1004.83
2018-12-07T03:39:06.071Z,1004.73
2018-12-07T03:40:06.080Z,1004.79
2018-12-07T03:41:06.085Z,1004.72
2018-12-07T03:42:06.083Z,1004.73
2018-12-07T03:43:06.101Z,1004.62
2018-12-07T03:44:06.103Z,1004.64
2018-12-07T03:45:06.112Z,1004.72
2018-12-07T03:46:06.113Z,1004.66
2018-12-07T03:47:06.200Z,1004.65
2018-12-07T03:48:06.170Z,1004.58
2018-12-07T03:49:06.151Z,1004.66
2018-12-07T03:50:06.139Z,1004.66
2018-12-07T03:51:06.138Z,1004.59
2018-12-07T03:52:06.149Z,1004.62
2018-12-07T03:53:06.157Z,1004.58
2018-12-07T03:54:06.159Z,1004.55
2018-12-07T03:55:06.168Z,1004.61
2018-12-07T03:56:06.174Z,1004.62
2018-12-07T03:57:06.182Z,1004.51
2018-12-07T03:58:06.184Z,1004.54
2018-12-07T03:59:06.199Z,1004.48
2018-12-07T04:00:06.196Z,1004.48
2018-12-07T04:01:06.220Z,1004.43
2018-12-07T04:02:06.204Z,1004.50
2018-12-07T04:03:06.214Z,1004.45
2018-12-07T04:04:06.228Z,1004.41
2018-12-07T04:05:06.224Z,1004.40
2018-12-07T04:06:06.229Z,1004.36
2018-12-07T04:07:06.250Z,1004.38
2018-12-07T04:08:06.241Z,1004.32
2018-12-07T04:09:06.250Z,1004.32
2018-12-07T04:10:06.254Z,1004.35
2018-12-07T04:12:06.269Z,1004.34
2018-12-07T04:13:06.275Z,1004.30
2018-12-07T04:14:06.280Z,1004.30
2018-12-07T04:15:06.284Z,1004.34
2018-12-07T04:16:06.287Z,1004.21
2018-12-07T04:17:06.293Z,1004.20
2018-12-07T04:18:06.301Z,1004.28
2018-12-07T04:19:06.406Z,1004.23
2018-12-07T04:20:06.317Z,1004.20
2018-12-07T04:21:06.331Z,1004.27
2018-12-07T04:22:06.316Z,1004.21
2018-12-07T04:23:06.335Z,1004.28
2018-12-07T04:24:06.355Z,1004.25
2018-12-07T04:25:06.339Z,1004.15
2018-12-07T04:26:06.345Z,1004.25
2018-12-07T04:27:06.359Z,1004.18
2018-12-07T04:28:06.366Z,1004.10
2018-12-07T04:29:06.381Z,1004.18
2018-12-07T04:30:06.371Z,1004.22
2018-12-07T04:31:06.375Z,1004.20
2018-12-07T04:32:06.385Z,1004.18
2018-12-07T04:33:06.390Z,1003.99
2018-12-07T04:34:06.396Z,1004.14
2018-12-07T04:35:06.404Z,1004.10
2018-12-07T04:36:07.529Z,1004.11
2018-12-07T04:37:06.415Z,1004.20
2018-12-07T04:38:06.420Z,1004.14
2018-12-07T04:39:06.430Z,1004.07
2018-12-07T04:40:06.433Z,1004.01
2018-12-07T04:41:06.439Z,1004.13
2018-12-07T04:42:06.445Z,1004.19
2018-12-07T04:43:06.447Z,1003.99
2018-12-07T04:44:06.460Z,1004.09
2018-12-07T04:46:06.471Z,1003.98
2018-12-07T04:47:06.475Z,1004.04
2018-12-07T04:48:06.479Z,1004.11
2018-12-07T04:49:06.491Z,1004.03
2018-12-07T04:50:06.498Z,1004.04
2018-12-07T04:51:06.499Z,1004.05
2018-12-07T04:52:06.507Z,1004.03
2018-12-07T04:53:06.509Z,1003.97
2018-12-07T04:54:06.522Z,1004.06
2018-12-07T04:55:06.530Z,1003.97
2018-12-07T04:56:06.532Z,1003.97
2018-12-07T04:57:06.542Z,1003.97
2018-12-07T04:58:06.547Z,1003.92
2018-12-07T04:59:06.548Z,1003.95
2018-12-07T05:01:06.561Z,1003.92
2018-12-07T05:02:06.567Z,1003.87
2018-12-07T05:03:06.574Z,1003.92
2018-12-07T05:04:06.574Z,1003.87
2018-12-07T05:05:06.584Z,1003.94
2018-12-07T05:06:06.584Z,1003.86
2018-12-07T05:07:06.592Z,1003.88
2018-12-07T05:08:06.600Z,1003.92
2018-12-07T05:09:06.608Z,1003.86
2018-12-07T05:10:06.611Z,1003.86
2018-12-07T05:11:06.613Z,1003.82
2018-12-07T05:12:06.625Z,1003.76
2018-12-07T05:13:06.634Z,1003.76
2018-12-07T05:14:06.642Z,1003.76
2018-12-07T05:15:06.651Z,1003.80
2018-12-07T05:16:06.656Z,1003.78
2018-12-07T05:17:06.653Z,1003.76
2018-12-07T05:18:06.666Z,1003.75
2018-12-07T05:19:06.676Z,1003.74
2018-12-07T05:20:06.671Z,1003.71
2018-12-07T05:21:06.679Z,1003.70
2018-12-07T05:22:06.687Z,1003.68
2018-12-07T05:23:06.687Z,1003.73
2018-12-07T05:25:06.714Z,1003.67
2018-12-07T05:26:06.720Z,1003.66
2018-12-07T05:27:06.711Z,1003.69
2018-12-07T05:28:06.720Z,1003.62
2018-12-07T05:29:06.731Z,1003.59
2018-12-07T05:30:06.731Z,1003.66
2018-12-07T05:31:06.737Z,1003.52
2018-12-07T05:32:06.742Z,1003.54
2018-12-07T05:33:06.752Z,1003.54
2018-12-07T05:34:06.758Z,1003.54
2018-12-07T05:35:06.772Z,1003.43
2018-12-07T05:36:06.772Z,1003.48
2018-12-07T05:37:06.776Z,1003.46
2018-12-07T05:38:06.784Z,1003.47
2018-12-07T05:39:06.790Z,1003.44
2018-12-07T05:40:06.795Z,1003.37
2018-12-07T05:41:06.795Z,1003.36
2018-12-07T05:42:06.807Z,1003.37
2018-12-07T05:43:06.805Z,1003.38
2018-12-07T05:44:06.815Z,1003.37
2018-12-07T05:45:06.817Z,1003.38
2018-12-07T05:46:06.830Z,1003.33
2018-12-07T05:47:06.834Z,1003.32
2018-12-07T05:48:06.845Z,1003.40
2018-12-07T05:49:06.860Z,1003.26
2018-12-07T05:50:06.851Z,1003.27
2018-12-07T05:51:06.861Z,1003.33
2018-12-07T05:52:06.868Z,1003.27
2018-12-07T05:53:06.873Z,1003.24
2018-12-07T05:54:06.881Z,1003.23
2018-12-07T05:55:06.879Z,1003.15
2018-12-07T05:56:06.897Z,1003.25
2018-12-07T05:57:06.898Z,1003.27
2018-12-07T05:58:06.908Z,1003.16
2018-12-07T05:59:06.915Z,1003.17
2018-12-07T06:00:06.915Z,1002.84
2018-12-07T06:01:06.926Z,1003.19
2018-12-07T06:02:06.921Z,1003.11
2018-12-07T06:03:06.949Z,1003.07
2018-12-07T06:04:06.942Z,1003.08
2018-12-07T06:05:06.940Z,1003.06
2018-12-07T06:06:06.949Z,1003.02
2018-12-07T06:07:06.957Z,1003.02
2018-12-07T06:08:06.961Z,1002.96
2018-12-07T06:09:06.968Z,1002.95
2018-12-07T06:10:06.974Z,1002.94
2018-12-07T06:12:06.980Z,1002.99
2018-12-07T06:13:06.994Z,1002.91
2018-12-07T06:14:07.002Z,1002.91
2018-12-07T06:16:07.007Z,1002.90
2018-12-07T06:17:07.025Z,1002.90
2018-12-07T06:18:07.014Z,1002.85
2018-12-07T06:19:07.026Z,1002.87
2018-12-07T06:20:07.039Z,1002.80
2018-12-07T06:21:07.042Z,1002.86
2018-12-07T06:22:07.042Z,1002.90
2018-12-07T06:23:07.050Z,1002.84
2018-12-07T06:24:07.054Z,1002.84
2018-12-07T06:25:07.058Z,1002.93
2018-12-07T06:26:07.078Z,1002.89
2018-12-07T06:27:08.361Z,1002.80
2018-12-07T06:28:07.092Z,1002.81
2018-12-07T06:29:07.091Z,1002.81
2018-12-07T06:30:07.094Z,1002.81
2018-12-07T06:31:07.099Z,1002.80
2018-12-07T06:32:07.111Z,1002.78
2018-12-07T06:33:07.108Z,1002.67
2018-12-07T06:34:07.111Z,1002.72
2018-12-07T06:35:07.126Z,1002.78
2018-12-07T06:36:07.127Z,1002.73
2018-12-07T06:37:07.134Z,1002.62
2018-12-07T06:38:07.139Z,1002.68
2018-12-07T06:39:07.140Z,1002.66
2018-12-07T06:40:07.168Z,1002.70
2018-12-07T06:41:07.160Z,1002.59
2018-12-07T06:42:07.168Z,1002.64
2018-12-07T06:43:07.166Z,1002.62
2018-12-07T06:44:07.163Z,1002.64
2018-12-07T06:45:07.176Z,1002.63
2018-12-07T06:46:07.185Z,1002.61
2018-12-07T06:47:07.191Z,1002.62
2018-12-07T06:48:07.213Z,1002.60
2018-12-07T06:49:07.205Z,1002.61
2018-12-07T06:50:07.212Z,1002.55
2018-12-07T06:51:07.226Z,1002.51
2018-12-07T06:52:07.214Z,1002.57
2018-12-07T06:53:07.226Z,1002.50
2018-12-07T06:54:07.234Z,1002.45
2018-12-07T06:55:07.242Z,1002.40
2018-12-07T06:56:07.246Z,1002.41
2018-12-07T06:57:07.251Z,1002.43
2018-12-07T06:59:07.270Z,1002.35
2018-12-07T07:01:07.282Z,1002.31
2018-12-07T07:02:07.292Z,1002.30
2018-12-07T07:03:07.286Z,1002.34
2018-12-07T07:04:07.298Z,1002.30
2018-12-07T07:05:07.302Z,1002.27
2018-12-07T07:06:07.300Z,1002.32
2018-12-07T07:07:07.308Z,1002.35
2018-12-07T07:08:07.328Z,1002.23
2018-12-07T07:09:07.312Z,1002.26
2018-12-07T07:10:07.329Z,1002.26
2018-12-07T07:11:07.344Z,1002.28
2018-12-07T07:12:07.340Z,1002.27
2018-12-07T07:13:07.352Z,1002.27
2018-12-07T07:14:07.354Z,1002.26
2018-12-07T07:15:07.354Z,1002.27
2018-12-07T07:16:07.362Z,1002.21
2018-12-07T07:17:07.368Z,1002.25
2018-12-07T07:18:07.376Z,1002.23
2018-12-07T07:19:07.392Z,1002.26
2018-12-07T07:20:07.396Z,1002.23
2018-12-07T07:21:07.395Z,1002.15
2018-12-07T07:22:07.389Z,1002.15
2018-12-07T07:23:07.405Z,1002.09
2018-12-07T07:24:07.409Z,1002.16
2018-12-07T07:25:07.407Z,1002.15
2018-12-07T07:26:07.411Z,1002.17
2018-12-07T07:27:07.429Z,1002.18
2018-12-07T07:28:07.428Z,1002.06
2018-12-07T07:29:07.430Z,1002.14
2018-12-07T07:31:07.450Z,1002.05
2018-12-07T07:32:07.454Z,1002.09
2018-12-07T07:33:07.458Z,1002.07
2018-12-07T07:34:07.464Z,1002.03
2018-12-07T07:35:07.470Z,1002.04
2018-12-07T07:36:07.476Z,1002.05
2018-12-07T07:37:07.488Z,1001.94
2018-12-07T07:38:07.486Z,1002.05
2018-12-07T07:39:07.492Z,1002.01
2018-12-07T07:40:07.524Z,1001.99
2018-12-07T07:41:07.515Z,1001.95
2018-12-07T07:42:07.512Z,1001.98
2018-12-07T07:43:07.513Z,1001.97
2018-12-07T07:44:07.520Z,1001.98
2018-12-07T07:45:07.531Z,1002.03
2018-12-07T07:46:07.535Z,1002.10
2018-12-07T07:47:07.540Z,1002.01
2018-12-07T07:48:07.549Z,1001.98
2018-12-07T07:49:07.559Z,1002.02
2018-12-07T07:50:07.563Z,1001.99
2018-12-07T07:51:07.596Z,1001.92
2018-12-07T07:52:07.576Z,1001.96
2018-12-07T07:53:07.589Z,1001.86
2018-12-07T07:54:07.598Z,1001.91
2018-12-07T07:55:07.596Z,1001.74
2018-12-07T07:56:15.176Z,1001.90
2018-12-07T07:57:07.629Z,1001.86
2018-12-07T07:58:07.614Z,1001.77
2018-12-07T08:00:07.637Z,1001.75
2018-12-07T08:01:07.627Z,1001.75
2018-12-07T08:02:07.643Z,1001.85
2018-12-07T08:03:07.648Z,1001.75
2018-12-07T08:04:07.655Z,1001.78
2018-12-07T08:05:07.655Z,1001.68
2018-12-07T08:06:07.698Z,1001.79
2018-12-07T08:07:07.662Z,1001.72
2018-12-07T08:08:07.687Z,1001.71
2018-12-07T08:09:07.685Z,1001.75
2018-12-07T08:10:07.679Z,1001.72
2018-12-07T08:11:07.682Z,1001.69
2018-12-07T08:12:07.690Z,1001.67
2018-12-07T08:13:07.694Z,1001.75
2018-12-07T08:14:07.739Z,1001.73
2018-12-07T08:15:07.711Z,1001.66
2018-12-07T08:16:07.715Z,1001.73
2018-12-07T08:17:07.726Z,1001.66
2018-12-07T08:18:07.747Z,1001.63
2018-12-07T08:19:07.748Z,1001.71
2018-12-07T08:20:07.744Z,1001.61
2018-12-07T08:21:07.787Z,1001.68
2018-12-07T08:22:07.758Z,1001.58
2018-12-07T08:23:14.508Z,1001.63
2018-12-07T08:24:07.771Z,1001.56
2018-12-07T08:25:07.770Z,1001.61
2018-12-07T08:26:07.781Z,1001.58
2018-12-07T08:27:07.781Z,1001.54
2018-12-07T08:28:07.790Z,1001.57
2018-12-07T08:29:07.801Z,1001.58
2018-12-07T08:30:07.803Z,1001.54
2018-12-07T08:31:07.810Z,1001.57
2018-12-07T08:32:07.805Z,1001.59
2018-12-07T08:33:07.822Z,1001.60
2018-12-07T08:34:07.848Z,1001.49
2018-12-07T08:35:07.844Z,1001.51
2018-12-07T08:36:07.887Z,1001.50
2018-12-07T08:37:07.841Z,1001.53
2018-12-07T08:38:07.877Z,1001.51
2018-12-07T08:39:07.850Z,1001.45
2018-12-07T08:40:07.858Z,1001.41
2018-12-07T08:42:07.884Z,1001.35
2018-12-07T08:43:07.877Z,1001.36
2018-12-07T08:44:07.883Z,1001.37
2018-12-07T08:45:07.896Z,1001.34
2018-12-07T08:46:07.903Z,1001.39
2018-12-07T08:47:07.907Z,1001.32
2018-12-07T08:48:07.907Z,1001.28
2018-12-07T08:49:07.921Z,1001.30
2018-12-07T08:50:07.918Z,1001.36
2018-12-07T08:51:07.929Z,1001.33
2018-12-07T08:52:07.942Z,1001.30
2018-12-07T08:53:07.938Z,1001.31
2018-12-07T08:54:07.943Z,1001.26
2018-12-07T08:55:07.954Z,1001.24
2018-12-07T08:56:07.959Z,1001.17
2018-12-07T08:57:08.051Z,1001.24
2018-12-07T08:59:07.974Z,1001.18
2018-12-07T09:00:07.986Z,1001.17
2018-12-07T09:01:07.993Z,1001.20
2018-12-07T09:02:07.995Z,1001.12
2018-12-07T09:03:08.007Z,1001.11
2018-12-07T09:04:08.009Z,1001.10
2018-12-07T09:05:08.018Z,1001.07
2018-12-07T09:06:08.014Z,1001.00
2018-12-07T09:07:08.031Z,1000.80
2018-12-07T09:08:14.963Z,1000.99
2018-12-07T09:10:08.044Z,1000.99
2018-12-07T09:11:08.047Z,1000.94
2018-12-07T09:12:08.050Z,1001.00
2018-12-07T09:13:08.056Z,1000.99
2018-12-07T09:14:08.062Z,1000.93
2018-12-07T09:15:08.105Z,1000.89
2018-12-07T09:16:08.073Z,1000.97
2018-12-07T09:17:08.078Z,1000.89
2018-12-07T09:18:08.086Z,1000.83
2018-12-07T09:19:08.088Z,1000.93
2018-12-07T09:20:08.099Z,1000.93
2018-12-07T09:21:08.106Z,1000.90
2018-12-07T09:22:08.103Z,1000.82
2018-12-07T09:23:08.115Z,1000.74
2018-12-07T09:24:08.118Z,1000.78
2018-12-07T09:25:08.126Z,1000.78
2018-12-07T09:26:08.127Z,1000.78
2018-12-07T09:27:08.133Z,1000.75
2018-12-07T09:28:08.143Z,1000.68
2018-12-07T09:29:08.151Z,1000.68
2018-12-07T09:30:08.160Z,1000.74
2018-12-07T09:32:08.174Z,1000.54
2018-12-07T09:33:08.182Z,1000.61
2018-12-07T09:34:08.181Z,1000.64
2018-12-07T09:35:08.301Z,1000.72
2018-12-07T09:36:08.202Z,1000.60
2018-12-07T09:39:08.205Z,1000.67
2018-12-07T09:40:08.228Z,1000.67
2018-12-07T09:41:08.219Z,1000.63
2018-12-07T09:42:08.229Z,1000.70
2018-12-07T09:43:08.233Z,1000.57
2018-12-07T09:45:08.247Z,1000.57
2018-12-07T09:46:08.251Z,1000.52
2018-12-07T09:48:08.270Z,1000.50
2018-12-07T09:49:08.292Z,1000.48
2018-12-07T09:50:08.343Z,1000.48
2018-12-07T09:51:08.297Z,1000.44
2018-12-07T09:52:08.286Z,1000.40
2018-12-07T09:53:08.300Z,1000.52
2018-12-07T09:54:08.299Z,1000.42
2018-12-07T09:55:08.309Z,1000.41
2018-12-07T09:56:08.306Z,1000.43
2018-12-07T09:57:08.319Z,1000.37
2018-12-07T09:58:08.322Z,1000.35
2018-12-07T09:59:08.330Z,1000.30
2018-12-07T10:00:08.338Z,1000.32
2018-12-07T10:01:08.338Z,1000.29
2018-12-07T10:02:08.374Z,1000.17
2018-12-07T10:03:08.350Z,1000.20
2018-12-07T10:04:08.359Z,1000.24
2018-12-07T10:06:08.371Z,1000.15
2018-12-07T10:07:08.380Z,1000.13
2018-12-07T10:08:08.380Z,1000.19
2018-12-07T10:09:08.393Z,1000.13
2018-12-07T10:10:08.391Z,1000.06
2018-12-07T10:11:08.406Z,1000.08
2018-12-07T10:12:08.412Z,1000.14
2018-12-07T10:13:08.429Z,999.99
2018-12-07T10:14:08.419Z,1000.06
2018-12-07T10:15:08.430Z,999.92
2018-12-07T10:17:08.432Z,999.95
2018-12-07T10:18:08.446Z,999.99
2018-12-07T10:19:08.546Z,999.86
2018-12-07T10:20:08.458Z,1000.02
2018-12-07T10:21:08.456Z,999.78
2018-12-07T10:22:08.462Z,999.85
2018-12-07T10:23:08.465Z,999.85
2018-12-07T10:24:08.481Z,999.79
2018-12-07T10:25:08.478Z,999.66
2018-12-07T10:26:08.487Z,999.82
2018-12-07T10:27:08.545Z,999.74
2018-12-07T10:28:08.501Z,999.68
2018-12-07T10:29:08.506Z,999.70
2018-12-07T10:30:08.511Z,999.56
2018-12-07T10:31:08.521Z,999.64
2018-12-07T10:33:08.539Z,999.63
2018-12-07T10:34:08.546Z,999.69
2018-12-07T10:37:08.572Z,999.56
2018-12-07T10:39:08.557Z,999.43
2018-12-07T10:40:08.583Z,999.40
2018-12-07T10:41:08.579Z,999.47
2018-12-07T10:42:08.579Z,999.28
2018-12-07T10:43:08.587Z,999.36
2018-12-07T10:44:08.594Z,999.35
2018-12-07T10:45:08.601Z,999.39
2018-12-07T10:46:08.603Z,999.35
2018-12-07T10:47:08.608Z,999.21
2018-12-07T10:48:08.620Z,999.28
2018-12-07T10:49:08.629Z,999.23
2018-12-07T10:50:08.635Z,999.25
2018-12-07T10:51:08.669Z,999.21
2018-12-07T10:53:08.668Z,999.17
2018-12-07T10:54:08.664Z,999.10
2018-12-07T10:55:08.674Z,999.13
2018-12-07T10:57:08.674Z,998.98
2018-12-07T10:58:08.686Z,998.96
2018-12-07T10:59:08.696Z,998.86
2018-12-07T11:00:08.700Z,998.86
2018-12-07T11:01:08.707Z,998.96
2018-12-07T11:02:08.704Z,998.94
2018-12-07T11:03:08.734Z,998.92
2018-12-07T11:04:08.717Z,998.88
2018-12-07T11:05:08.733Z,998.80
2018-12-07T11:06:08.730Z,998.90
2018-12-07T11:07:08.728Z,998.97
2018-12-07T11:08:08.749Z,998.75
2018-12-07T11:09:08.751Z,998.74
2018-12-07T11:10:08.762Z,998.74
2018-12-07T11:11:08.761Z,998.69
2018-12-07T11:13:08.767Z,998.58
2018-12-07T11:14:08.785Z,998.67
2018-12-07T11:15:08.789Z,998.53
2018-12-07T11:16:08.790Z,998.50
2018-12-07T11:17:08.801Z,998.50
2018-12-07T11:18:08.800Z,998.45
2018-12-07T11:19:08.817Z,998.43
2018-12-07T11:20:08.816Z,998.41
2018-12-07T11:21:08.835Z,998.39
2018-12-07T11:22:08.848Z,998.29
2018-12-07T11:23:08.833Z,998.27
2018-12-07T11:24:08.835Z,998.27
2018-12-07T11:25:08.875Z,998.21
2018-12-07T11:26:08.852Z,998.17
2018-12-07T11:27:08.856Z,998.08
2018-12-07T11:28:08.871Z,998.13
2018-12-07T11:29:08.882Z,998.13
2018-12-07T11:30:08.875Z,998.16
2018-12-07T11:31:08.903Z,997.99
2018-12-07T11:32:08.888Z,998.05
2018-12-07T11:33:08.913Z,998.11
2018-12-07T11:34:08.897Z,998.09
2018-12-07T11:35:08.910Z,998.16
2018-12-07T11:36:08.912Z,997.97
2018-12-07T11:37:08.931Z,997.95
2018-12-07T11:38:08.925Z,998.06
2018-12-07T11:40:08.956Z,998.10
2018-12-07T11:41:08.942Z,998.05
2018-12-07T11:42:08.969Z,998.00
2018-12-07T11:43:08.970Z,998.03
2018-12-07T11:44:08.958Z,997.74
2018-12-07T11:45:08.960Z,997.88
2018-12-07T11:46:08.980Z,997.83
2018-12-07T11:47:08.975Z,997.67
2018-12-07T11:48:08.984Z,997.77
2018-12-07T11:49:09.000Z,997.76
2018-12-07T11:50:08.992Z,997.74
2018-12-07T11:51:09.001Z,997.73
2018-12-07T11:52:09.002Z,997.64
2018-12-07T11:53:09.182Z,997.67
2018-12-07T11:54:09.024Z,997.70
2018-12-07T11:55:09.032Z,997.64
2018-12-07T11:56:09.038Z,997.59
2018-12-07T11:57:09.053Z,997.64
2018-12-07T11:58:09.105Z,997.50
2018-12-07T11:59:09.057Z,997.50
2018-12-07T12:00:09.056Z,997.48
2018-12-07T12:02:09.113Z,997.38
2018-12-07T12:03:09.071Z,997.33
2018-12-07T12:04:09.087Z,997.25
2018-12-07T12:05:09.093Z,997.36
2018-12-07T12:06:09.098Z,997.30
2018-12-07T12:07:09.118Z,997.26
2018-12-07T12:08:09.105Z,997.08
2018-12-07T12:09:09.118Z,997.13
2018-12-07T12:10:09.127Z,997.08
2018-12-07T12:11:09.156Z,996.96
2018-12-07T12:12:09.137Z,996.99
2018-12-07T12:13:09.144Z,996.98
2018-12-07T12:14:09.145Z,996.88
2018-12-07T12:15:09.150Z,996.95
2018-12-07T12:16:09.169Z,996.81
2018-12-07T12:17:09.165Z,996.75
2018-12-07T12:18:09.171Z,996.84
2018-12-07T12:19:09.182Z,996.77
2018-12-07T12:20:09.185Z,996.69
2018-12-07T12:21:09.181Z,996.65
2018-12-07T12:22:09.201Z,996.66
2018-12-07T12:23:09.214Z,996.61
2018-12-07T12:24:09.212Z,996.58
2018-12-07T12:25:09.230Z,996.55
2018-12-07T12:26:09.226Z,996.51
2018-12-07T12:27:09.232Z,996.52
2018-12-07T12:28:09.234Z,996.43
2018-12-07T12:29:09.243Z,996.61
2018-12-07T12:30:09.271Z,996.56
2018-12-07T12:31:09.266Z,996.49
2018-12-07T12:32:09.271Z,996.46
2018-12-07T12:33:09.277Z,996.37
2018-12-07T12:34:09.274Z,996.45
2018-12-07T12:35:09.284Z,996.41
2018-12-07T12:36:16.782Z,996.33
2018-12-07T12:37:09.293Z,996.29
2018-12-07T12:38:09.306Z,996.30
2018-12-07T12:39:09.309Z,996.13
2018-12-07T12:40:09.313Z,996.14
2018-12-07T12:41:09.322Z,996.07
2018-12-07T12:42:09.342Z,996.06
2018-12-07T12:43:09.332Z,996.00
2018-12-07T12:44:09.339Z,996.00